sensor_id;sensor_type;location;lat;lon;timestamp;pressure;altitude;pressure_sealevel;temperature;humidity
47522;BME280;32291;52.010;4.446;2023-07-13T00:00:35;77600.34;;;-144.67;100.00
47522;BME280;32291;52.010;4.446;2023-07-13T00:01:42;77611.03;;;-144.67;100.00
47522;BME280;32291;52.010;4.446;2023-07-13T00:02:49;77606.75;;;-144.67;100.00
47522;BME280;32291;52.010;4.446;2023-07-13T00:03:57;77611.03;;;-144.67;100.00
47522;BME280;32291;52.010;4.446;2023-07-13T00:05:05;77615.31;;;-144.67;100.00
47522;BME280;32291;52.010;4.446;2023-07-13T00:06:13;77611.03;;;-144.67;100.00
47522;BME280;32291;52.010;4.446;2023-07-13T00:07:20;77615.31;;;-144.67;100.00
47522;BME280;32291;52.010;4.446;2023-07-13T00:08:23;77619.63;;;-144.67;100.00
47522;BME280;32291;52.010;4.446;2023-07-13T00:09:25;77615.31;;;-144.67;100.00
47522;BME280;32291;52.010;4.446;2023-07-13T00:10:33;77619.63;;;-144.67;100.00
47522;BME280;32291;52.010;4.446;2023-07-13T00:11:35;77613.19;;;-144.67;100.00
47522;BME280;32291;52.010;4.446;2023-07-13T00:12:42;77619.63;;;-144.67;100.00
47522;BME280;32291;52.010;4.446;2023-07-13T00:13:45;77611.03;;;-144.67;100.00
47522;BME280;32291;52.010;4.446;2023-07-13T00:14:52;77623.88;;;-144.67;100.00
47522;BME280;32291;52.010;4.446;2023-07-13T00:15:56;77611.03;;;-144.67;100.00
47522;BME280;32291;52.010;4.446;2023-07-13T00:17:03;77621.75;;;-144.67;100.00
47522;BME280;32291;52.010;4.446;2023-07-13T00:18:10;77611.03;;;-144.67;100.00
47522;BME280;32291;52.010;4.446;2023-07-13T00:19:14;77604.63;;;-144.67;100.00
47522;BME280;32291;52.010;4.446;2023-07-13T00:20:23;77608.91;;;-144.67;100.00
47522;BME280;32291;52.010;4.446;2023-07-13T00:21:31;77615.31;;;-144.67;100.00
47522;BME280;32291;52.010;4.446;2023-07-13T00:22:34;77619.63;;;-144.67;100.00
47522;BME280;32291;52.010;4.446;2023-07-13T00:23:42;77615.31;;;-144.67;100.00
47522;BME280;32291;52.010;4.446;2023-07-13T00:24:49;77623.88;;;-144.67;100.00
47522;BME280;32291;52.010;4.446;2023-07-13T00:25:58;77623.88;;;-144.67;100.00
47522;BME280;32291;52.010;4.446;2023-07-13T00:27:05;77628.16;;;-144.67;100.00
47522;BME280;32291;52.010;4.446;2023-07-13T00:28:07;77632.44;;;-144.67;100.00
47522;BME280;32291;52.010;4.446;2023-07-13T00:29:10;77632.44;;;-144.67;100.00
47522;BME280;32291;52.010;4.446;2023-07-13T00:30:12;77636.72;;;-144.67;100.00
47522;BME280;32291;52.010;4.446;2023-07-13T00:31:19;77628.16;;;-144.67;100.00
47522;BME280;32291;52.010;4.446;2023-07-13T00:32:30;77632.44;;;-144.67;100.00
47522;BME280;32291;52.010;4.446;2023-07-13T00:33:33;77628.16;;;-144.67;100.00
47522;BME280;32291;52.010;4.446;2023-07-13T00:34:40;77626.03;;;-144.67;100.00
47522;BME280;32291;52.010;4.446;2023-07-13T00:35:43;77628.16;;;-144.67;100.00
47522;BME280;32291;52.010;4.446;2023-07-13T00:36:45;77628.16;;;-144.67;100.00
47522;BME280;32291;52.010;4.446;2023-07-13T00:37:53;77628.16;;;-144.67;100.00
47522;BME280;32291;52.010;4.446;2023-07-13T00:39:00;77632.44;;;-144.67;100.00
47522;BME280;32291;52.010;4.446;2023-07-13T00:40:09;77634.59;;;-144.67;100.00
47522;BME280;32291;52.010;4.446;2023-07-13T00:41:12;77632.44;;;-144.67;100.00
47522;BME280;32291;52.010;4.446;2023-07-13T00:42:19;77628.16;;;-144.67;100.00
47522;BME280;32291;52.010;4.446;2023-07-13T00:43:28;77634.59;;;-144.67;100.00
47522;BME280;32291;52.010;4.446;2023-07-13T00:44:36;77632.44;;;-144.67;100.00
47522;BME280;32291;52.010;4.446;2023-07-13T00:46:51;77638.88;;;-144.67;100.00
47522;BME280;32291;52.010;4.446;2023-07-13T00:47:56;77628.16;;;-144.67;100.00
47522;BME280;32291;52.010;4.446;2023-07-13T00:49:12;77632.44;;;-144.67;100.00
47522;BME280;32291;52.010;4.446;2023-07-13T00:50:22;77636.72;;;-144.67;100.00
47522;BME280;32291;52.010;4.446;2023-07-13T00:53:03;77641.00;;;-144.67;100.00
47522;BME280;32291;52.010;4.446;2023-07-13T00:54:17;77649.56;;;-144.67;100.00
47522;BME280;32291;52.010;4.446;2023-07-13T00:55:22;77649.56;;;-144.67;100.00
47522;BME280;32291;52.010;4.446;2023-07-13T00:56:25;77636.72;;;-144.67;100.00
47522;BME280;32291;52.010;4.446;2023-07-13T00:57:35;77662.41;;;-144.67;100.00
47522;BME280;32291;52.010;4.446;2023-07-13T00:58:43;77658.13;;;-144.67;100.00
47522;BME280;32291;52.010;4.446;2023-07-13T00:59:53;77649.56;;;-144.67;100.00
47522;BME280;32291;52.010;4.446;2023-07-13T01:01:01;77662.41;;;-144.67;100.00
47522;BME280;32291;52.010;4.446;2023-07-13T01:02:04;77662.41;;;-144.67;100.00
47522;BME280;32291;52.010;4.446;2023-07-13T01:03:11;77651.72;;;-144.67;100.00
47522;BME280;32291;52.010;4.446;2023-07-13T01:04:14;77666.69;;;-144.67;100.00
47522;BME280;32291;52.010;4.446;2023-07-13T01:05:22;77664.56;;;-144.67;100.00
47522;BME280;32291;52.010;4.446;2023-07-13T01:06:30;77662.41;;;-144.67;100.00
47522;BME280;32291;52.010;4.446;2023-07-13T01:07:41;77662.41;;;-144.67;100.00
47522;BME280;32291;52.010;4.446;2023-07-13T01:08:50;77668.84;;;-144.67;100.00
47522;BME280;32291;52.010;4.446;2023-07-13T01:09:52;77668.84;;;-144.67;100.00
47522;BME280;32291;52.010;4.446;2023-07-13T01:10:59;77675.25;;;-144.67;100.00
47522;BME280;32291;52.010;4.446;2023-07-13T01:12:07;77679.53;;;-144.67;100.00
47522;BME280;32291;52.010;4.446;2023-07-13T01:13:14;77681.69;;;-144.67;100.00
47522;BME280;32291;52.010;4.446;2023-07-13T01:14:16;77681.69;;;-144.67;100.00
47522;BME280;32291;52.010;4.446;2023-07-13T01:15:44;77675.25;;;-144.67;100.00
47522;BME280;32291;52.010;4.446;2023-07-13T01:16:52;77670.97;;;-144.67;100.00
47522;BME280;32291;52.010;4.446;2023-07-13T01:17:55;77685.97;;;-144.67;100.00
47522;BME280;32291;52.010;4.446;2023-07-13T01:19:18;77683.81;;;-144.67;100.00
47522;BME280;32291;52.010;4.446;2023-07-13T01:20:23;77698.81;;;-144.67;100.00
47522;BME280;32291;52.010;4.446;2023-07-13T01:21:33;77703.09;;;-144.67;100.00
47522;BME280;32291;52.010;4.446;2023-07-13T01:22:41;77707.38;;;-144.67;100.00
47522;BME280;32291;52.010;4.446;2023-07-13T01:23:43;77698.81;;;-144.67;100.00
47522;BME280;32291;52.010;4.446;2023-07-13T01:24:51;77705.22;;;-144.67;100.00
47522;BME280;32291;52.010;4.446;2023-07-13T01:25:59;77711.66;;;-144.67;100.00
47522;BME280;32291;52.010;4.446;2023-07-13T01:27:02;77718.06;;;-144.67;100.00
47522;BME280;32291;52.010;4.446;2023-07-13T01:28:08;77718.06;;;-144.67;100.00
47522;BME280;32291;52.010;4.446;2023-07-13T01:29:13;77728.78;;;-144.67;100.00
47522;BME280;32291;52.010;4.446;2023-07-13T01:30:20;77733.06;;;-144.67;100.00
47522;BME280;32291;52.010;4.446;2023-07-13T01:31:22;77728.78;;;-144.67;100.00
47522;BME280;32291;52.010;4.446;2023-07-13T01:32:29;77730.91;;;-144.67;100.00
47522;BME280;32291;52.010;4.446;2023-07-13T01:33:40;77730.91;;;-144.67;100.00
47522;BME280;32291;52.010;4.446;2023-07-13T01:34:42;77730.91;;;-144.67;100.00
47522;BME280;32291;52.010;4.446;2023-07-13T01:35:46;77745.91;;;-144.67;100.00
47522;BME280;32291;52.010;4.446;2023-07-13T01:36:49;77750.19;;;-144.67;100.00
47522;BME280;32291;52.010;4.446;2023-07-13T01:37:56;77741.63;;;-144.67;100.00
47522;BME280;32291;52.010;4.446;2023-07-13T01:39:06;77748.03;;;-144.67;100.00
47522;BME280;32291;52.010;4.446;2023-07-13T01:40:13;77743.75;;;-144.67;100.00
47522;BME280;32291;52.010;4.446;2023-07-13T01:41:20;77756.59;;;-144.67;100.00
47522;BME280;32291;52.010;4.446;2023-07-13T01:42:22;77743.75;;;-144.67;100.00
47522;BME280;32291;52.010;4.446;2023-07-13T01:43:30;77748.03;;;-144.67;100.00
47522;BME280;32291;52.010;4.446;2023-07-13T01:44:37;77756.59;;;-144.67;100.00
47522;BME280;32291;52.010;4.446;2023-07-13T01:45:44;77763.03;;;-144.67;100.00
47522;BME280;32291;52.010;4.446;2023-07-13T01:46:51;77778.00;;;-144.67;100.00
47522;BME280;32291;52.010;4.446;2023-07-13T01:47:58;77782.28;;;-144.67;100.00
47522;BME280;32291;52.010;4.446;2023-07-13T01:49:05;77773.72;;;-144.67;100.00
47522;BME280;32291;52.010;4.446;2023-07-13T01:50:08;77782.28;;;-144.67;100.00
47522;BME280;32291;52.010;4.446;2023-07-13T01:51:17;77775.88;;;-144.67;100.00
47522;BME280;32291;52.010;4.446;2023-07-13T01:52:24;77778.00;;;-144.67;100.00
47522;BME280;32291;52.010;4.446;2023-07-13T01:53:31;77778.00;;;-144.67;100.00
47522;BME280;32291;52.010;4.446;2023-07-13T01:54:33;77778.00;;;-144.67;100.00
47522;BME280;32291;52.010;4.446;2023-07-13T01:55:41;77793.00;;;-144.67;100.00
47522;BME280;32291;52.010;4.446;2023-07-13T01:56:49;77786.56;;;-144.67;100.00
47522;BME280;32291;52.010;4.446;2023-07-13T01:57:51;77788.72;;;-144.67;100.00
47522;BME280;32291;52.010;4.446;2023-07-13T01:58:58;77803.69;;;-144.67;100.00
47522;BME280;32291;52.010;4.446;2023-07-13T02:00:08;77807.97;;;-144.67;100.00
47522;BME280;32291;52.010;4.446;2023-07-13T02:01:11;77812.25;;;-144.67;100.00
47522;BME280;32291;52.010;4.446;2023-07-13T02:02:13;77803.69;;;-144.67;100.00
47522;BME280;32291;52.010;4.446;2023-07-13T02:03:16;77807.97;;;-144.67;100.00
47522;BME280;32291;52.010;4.446;2023-07-13T02:04:24;77807.97;;;-144.67;100.00
47522;BME280;32291;52.010;4.446;2023-07-13T02:05:31;77807.97;;;-144.67;100.00
47522;BME280;32291;52.010;4.446;2023-07-13T02:06:34;77820.84;;;-144.67;100.00
47522;BME280;32291;52.010;4.446;2023-07-13T02:07:36;77820.84;;;-144.67;100.00
47522;BME280;32291;52.010;4.446;2023-07-13T02:08:43;77820.84;;;-144.67;100.00
47522;BME280;32291;52.010;4.446;2023-07-13T02:09:50;77814.41;;;-144.67;100.00
47522;BME280;32291;52.010;4.446;2023-07-13T02:10:57;77816.53;;;-144.67;100.00
47522;BME280;32291;52.010;4.446;2023-07-13T02:11:59;77820.84;;;-144.67;100.00
47522;BME280;32291;52.010;4.446;2023-07-13T02:13:07;77820.84;;;-144.67;100.00
47522;BME280;32291;52.010;4.446;2023-07-13T02:14:09;77820.84;;;-144.67;100.00
47522;BME280;32291;52.010;4.446;2023-07-13T02:15:12;77812.25;;;-144.67;100.00
47522;BME280;32291;52.010;4.446;2023-07-13T02:16:14;77812.25;;;-144.67;100.00
47522;BME280;32291;52.010;4.446;2023-07-13T02:17:21;77827.25;;;-144.67;100.00
47522;BME280;32291;52.010;4.446;2023-07-13T02:18:29;77822.97;;;-144.67;100.00
47522;BME280;32291;52.010;4.446;2023-07-13T02:19:36;77827.25;;;-144.67;100.00
47522;BME280;32291;52.010;4.446;2023-07-13T02:20:44;77827.25;;;-144.67;100.00
47522;BME280;32291;52.010;4.446;2023-07-13T02:21:51;77827.25;;;-144.67;100.00
47522;BME280;32291;52.010;4.446;2023-07-13T02:22:53;77835.81;;;-144.67;100.00
47522;BME280;32291;52.010;4.446;2023-07-13T02:24:00;77822.97;;;-144.67;100.00
47522;BME280;32291;52.010;4.446;2023-07-13T02:25:03;77818.69;;;-144.67;100.00
47522;BME280;32291;52.010;4.446;2023-07-13T02:26:05;77822.97;;;-144.67;100.00
47522;BME280;32291;52.010;4.446;2023-07-13T02:27:12;77818.69;;;-144.67;100.00
47522;BME280;32291;52.010;4.446;2023-07-13T02:28:15;77829.38;;;-144.67;100.00
47522;BME280;32291;52.010;4.446;2023-07-13T02:29:17;77820.84;;;-144.67;100.00
47522;BME280;32291;52.010;4.446;2023-07-13T02:30:24;77825.09;;;-144.67;100.00
47522;BME280;32291;52.010;4.446;2023-07-13T02:31:26;77837.97;;;-144.67;100.00
47522;BME280;32291;52.010;4.446;2023-07-13T02:32:28;77842.22;;;-144.67;100.00
47522;BME280;32291;52.010;4.446;2023-07-13T02:33:31;77833.66;;;-144.67;100.00
47522;BME280;32291;52.010;4.446;2023-07-13T02:34:38;77831.53;;;-144.67;100.00
47522;BME280;32291;52.010;4.446;2023-07-13T02:35:45;77831.53;;;-144.67;100.00
47522;BME280;32291;52.010;4.446;2023-07-13T02:36:47;77837.97;;;-144.67;100.00
47522;BME280;32291;52.010;4.446;2023-07-13T02:37:55;77831.53;;;-144.67;100.00
47522;BME280;32291;52.010;4.446;2023-07-13T02:39:05;77833.66;;;-144.67;100.00
47522;BME280;32291;52.010;4.446;2023-07-13T02:40:08;77825.09;;;-144.67;100.00
47522;BME280;32291;52.010;4.446;2023-07-13T02:41:16;77837.97;;;-144.67;100.00
47522;BME280;32291;52.010;4.446;2023-07-13T02:42:23;77831.53;;;-144.67;100.00
47522;BME280;32291;52.010;4.446;2023-07-13T02:43:30;77835.81;;;-144.67;100.00
47522;BME280;32291;52.010;4.446;2023-07-13T02:44:33;77825.09;;;-144.67;100.00
47522;BME280;32291;52.010;4.446;2023-07-13T02:45:44;77827.25;;;-144.67;100.00
47522;BME280;32291;52.010;4.446;2023-07-13T02:46:46;77833.66;;;-144.67;100.00
47522;BME280;32291;52.010;4.446;2023-07-13T02:47:49;77825.09;;;-144.67;100.00
47522;BME280;32291;52.010;4.446;2023-07-13T02:48:56;77827.25;;;-144.67;100.00
47522;BME280;32291;52.010;4.446;2023-07-13T02:49:58;77833.66;;;-144.67;100.00
47522;BME280;32291;52.010;4.446;2023-07-13T02:51:06;77833.66;;;-144.67;100.00
47522;BME280;32291;52.010;4.446;2023-07-13T02:52:09;77837.97;;;-144.67;100.00
47522;BME280;32291;52.010;4.446;2023-07-13T02:53:16;77837.97;;;-144.67;100.00
47522;BME280;32291;52.010;4.446;2023-07-13T02:54:18;77842.22;;;-144.67;100.00
47522;BME280;32291;52.010;4.446;2023-07-13T02:55:25;77842.22;;;-144.67;100.00
47522;BME280;32291;52.010;4.446;2023-07-13T02:56:29;77844.38;;;-144.67;100.00
47522;BME280;32291;52.010;4.446;2023-07-13T02:57:32;77842.22;;;-144.67;100.00
47522;BME280;32291;52.010;4.446;2023-07-13T02:58:35;77842.22;;;-144.67;100.00
47522;BME280;32291;52.010;4.446;2023-07-13T02:59:43;77837.97;;;-144.67;100.00
47522;BME280;32291;52.010;4.446;2023-07-13T03:00:47;77837.97;;;-144.67;100.00
47522;BME280;32291;52.010;4.446;2023-07-13T03:01:49;77825.09;;;-144.67;100.00
47522;BME280;32291;52.010;4.446;2023-07-13T03:02:51;77833.66;;;-144.67;100.00
47522;BME280;32291;52.010;4.446;2023-07-13T03:03:59;77837.97;;;-144.67;100.00
47522;BME280;32291;52.010;4.446;2023-07-13T03:05:02;77829.38;;;-144.67;100.00
47522;BME280;32291;52.010;4.446;2023-07-13T03:06:05;77835.81;;;-144.67;100.00
47522;BME280;32291;52.010;4.446;2023-07-13T03:07:14;77837.97;;;-144.67;100.00
47522;BME280;32291;52.010;4.446;2023-07-13T03:08:22;77837.97;;;-144.67;100.00
47522;BME280;32291;52.010;4.446;2023-07-13T03:09:25;77833.66;;;-144.67;100.00
47522;BME280;32291;52.010;4.446;2023-07-13T03:10:27;77835.81;;;-144.67;100.00
47522;BME280;32291;52.010;4.446;2023-07-13T03:11:30;77837.97;;;-144.67;100.00
47522;BME280;32291;52.010;4.446;2023-07-13T03:12:33;77837.97;;;-144.67;100.00
47522;BME280;32291;52.010;4.446;2023-07-13T03:13:41;77833.66;;;-144.67;100.00
47522;BME280;32291;52.010;4.446;2023-07-13T03:14:44;77840.09;;;-144.67;100.00
47522;BME280;32291;52.010;4.446;2023-07-13T03:15:51;77833.66;;;-144.67;100.00
47522;BME280;32291;52.010;4.446;2023-07-13T03:16:58;77829.38;;;-144.67;100.00
47522;BME280;32291;52.010;4.446;2023-07-13T03:18:00;77833.66;;;-144.67;100.00
47522;BME280;32291;52.010;4.446;2023-07-13T03:19:07;77835.81;;;-144.67;100.00
47522;BME280;32291;52.010;4.446;2023-07-13T03:20:14;77842.22;;;-144.67;100.00
47522;BME280;32291;52.010;4.446;2023-07-13T03:21:21;77837.97;;;-144.67;100.00
47522;BME280;32291;52.010;4.446;2023-07-13T03:22:23;77833.66;;;-144.67;100.00
47522;BME280;32291;52.010;4.446;2023-07-13T03:23:31;77835.81;;;-144.67;100.00
47522;BME280;32291;52.010;4.446;2023-07-13T03:24:38;77835.81;;;-144.67;100.00
47522;BME280;32291;52.010;4.446;2023-07-13T03:25:45;77840.09;;;-144.67;100.00
47522;BME280;32291;52.010;4.446;2023-07-13T03:26:52;77827.25;;;-144.67;100.00
47522;BME280;32291;52.010;4.446;2023-07-13T03:27:55;77827.25;;;-144.67;100.00
47522;BME280;32291;52.010;4.446;2023-07-13T03:29:02;77837.97;;;-144.67;100.00
47522;BME280;32291;52.010;4.446;2023-07-13T03:30:09;77837.97;;;-144.67;100.00
47522;BME280;32291;52.010;4.446;2023-07-13T03:31:26;77829.38;;;-144.67;100.00
47522;BME280;32291;52.010;4.446;2023-07-13T03:32:33;77827.25;;;-144.67;100.00
47522;BME280;32291;52.010;4.446;2023-07-13T03:33:41;77825.09;;;-144.67;100.00
47522;BME280;32291;52.010;4.446;2023-07-13T03:34:44;77831.53;;;-144.67;100.00
47522;BME280;32291;52.010;4.446;2023-07-13T03:35:51;77825.09;;;-144.67;100.00
47522;BME280;32291;52.010;4.446;2023-07-13T03:36:55;77837.97;;;-144.67;100.00
47522;BME280;32291;52.010;4.446;2023-07-13T03:37:57;77840.09;;;-144.67;100.00
47522;BME280;32291;52.010;4.446;2023-07-13T03:39:02;77840.09;;;-144.67;100.00
47522;BME280;32291;52.010;4.446;2023-07-13T03:40:10;77842.22;;;-144.67;100.00
47522;BME280;32291;52.010;4.446;2023-07-13T03:41:16;77842.22;;;-144.67;100.00
47522;BME280;32291;52.010;4.446;2023-07-13T03:42:24;77840.09;;;-144.67;100.00
47522;BME280;32291;52.010;4.446;2023-07-13T03:43:31;77835.81;;;-144.67;100.00
47522;BME280;32291;52.010;4.446;2023-07-13T03:44:33;77837.97;;;-144.67;100.00
47522;BME280;32291;52.010;4.446;2023-07-13T03:45:40;77846.50;;;-144.67;100.00
47522;BME280;32291;52.010;4.446;2023-07-13T03:46:44;77837.97;;;-144.67;100.00
47522;BME280;32291;52.010;4.446;2023-07-13T03:47:46;77835.81;;;-144.67;100.00
47522;BME280;32291;52.010;4.446;2023-07-13T03:48:53;77825.09;;;-144.67;100.00
47522;BME280;32291;52.010;4.446;2023-07-13T03:50:01;77833.66;;;-144.67;100.00
47522;BME280;32291;52.010;4.446;2023-07-13T03:51:08;77833.66;;;-144.67;100.00
47522;BME280;32291;52.010;4.446;2023-07-13T03:52:15;77840.09;;;-144.67;100.00
47522;BME280;32291;52.010;4.446;2023-07-13T03:53:22;77827.25;;;-144.67;100.00
47522;BME280;32291;52.010;4.446;2023-07-13T03:54:29;77837.97;;;-144.67;100.00
47522;BME280;32291;52.010;4.446;2023-07-13T03:55:31;77833.66;;;-144.67;100.00
47522;BME280;32291;52.010;4.446;2023-07-13T03:56:34;77835.81;;;-144.67;100.00
47522;BME280;32291;52.010;4.446;2023-07-13T03:57:41;77835.81;;;-144.67;100.00
47522;BME280;32291;52.010;4.446;2023-07-13T03:58:49;77837.97;;;-144.67;100.00
47522;BME280;32291;52.010;4.446;2023-07-13T03:59:56;77827.25;;;-144.67;100.00
47522;BME280;32291;52.010;4.446;2023-07-13T04:01:06;77833.66;;;-144.67;100.00
47522;BME280;32291;52.010;4.446;2023-07-13T04:02:13;77835.81;;;-144.67;100.00
47522;BME280;32291;52.010;4.446;2023-07-13T04:03:21;77833.66;;;-144.67;100.00
47522;BME280;32291;52.010;4.446;2023-07-13T04:04:23;77833.66;;;-144.67;100.00
47522;BME280;32291;52.010;4.446;2023-07-13T04:05:28;77842.22;;;-144.67;100.00
47522;BME280;32291;52.010;4.446;2023-07-13T04:06:35;77842.22;;;-144.67;100.00
47522;BME280;32291;52.010;4.446;2023-07-13T04:07:43;77842.22;;;-144.67;100.00
47522;BME280;32291;52.010;4.446;2023-07-13T04:08:54;77833.66;;;-144.67;100.00
47522;BME280;32291;52.010;4.446;2023-07-13T04:10:02;77825.09;;;-144.67;100.00
47522;BME280;32291;52.010;4.446;2023-07-13T04:11:04;77825.09;;;-144.67;100.00
47522;BME280;32291;52.010;4.446;2023-07-13T04:12:11;77807.97;;;-144.67;100.00
47522;BME280;32291;52.010;4.446;2023-07-13T04:13:19;77816.53;;;-144.67;100.00
47522;BME280;32291;52.010;4.446;2023-07-13T04:14:26;77820.84;;;-144.67;100.00
47522;BME280;32291;52.010;4.446;2023-07-13T04:15:31;77812.25;;;-144.67;100.00
47522;BME280;32291;52.010;4.446;2023-07-13T04:16:34;77816.53;;;-144.67;100.00
47522;BME280;32291;52.010;4.446;2023-07-13T04:17:41;77816.53;;;-144.67;100.00
47522;BME280;32291;52.010;4.446;2023-07-13T04:18:49;77807.97;;;-144.67;100.00
47522;BME280;32291;52.010;4.446;2023-07-13T04:19:56;77807.97;;;-144.67;100.00
47522;BME280;32291;52.010;4.446;2023-07-13T04:21:03;77807.97;;;-144.67;100.00
47522;BME280;32291;52.010;4.446;2023-07-13T04:22:06;77803.69;;;-144.67;100.00
47522;BME280;32291;52.010;4.446;2023-07-13T04:23:13;77795.13;;;-144.67;100.00
47522;BME280;32291;52.010;4.446;2023-07-13T04:24:20;77801.56;;;-144.67;100.00
47522;BME280;32291;52.010;4.446;2023-07-13T04:25:23;77795.13;;;-144.67;100.00
47522;BME280;32291;52.010;4.446;2023-07-13T04:26:30;77797.28;;;-144.67;100.00
47522;BME280;32291;52.010;4.446;2023-07-13T04:27:37;77793.00;;;-144.67;100.00
47522;BME280;32291;52.010;4.446;2023-07-13T04:28:41;77790.84;;;-144.67;100.00
47522;BME280;32291;52.010;4.446;2023-07-13T04:29:45;77790.84;;;-144.67;100.00
47522;BME280;32291;52.010;4.446;2023-07-13T04:30:53;77786.56;;;-144.67;100.00
47522;BME280;32291;52.010;4.446;2023-07-13T04:32:00;77782.28;;;-144.67;100.00
47522;BME280;32291;52.010;4.446;2023-07-13T04:33:07;77784.44;;;-144.67;100.00
47522;BME280;32291;52.010;4.446;2023-07-13T04:34:10;77775.88;;;-144.67;100.00
47522;BME280;32291;52.010;4.446;2023-07-13T04:35:20;77780.16;;;-144.67;100.00
47522;BME280;32291;52.010;4.446;2023-07-13T04:36:24;77782.28;;;-144.67;100.00
47522;BME280;32291;52.010;4.446;2023-07-13T04:37:33;77771.59;;;-144.67;100.00
47522;BME280;32291;52.010;4.446;2023-07-13T04:38:42;77778.00;;;-144.67;100.00
47522;BME280;32291;52.010;4.446;2023-07-13T04:39:44;77769.44;;;-144.67;100.00
47522;BME280;32291;52.010;4.446;2023-07-13T04:40:48;77765.16;;;-144.67;100.00
47522;BME280;32291;52.010;4.446;2023-07-13T04:41:55;77760.88;;;-144.67;100.00
47522;BME280;32291;52.010;4.446;2023-07-13T04:43:02;77773.72;;;-144.67;100.00
47522;BME280;32291;52.010;4.446;2023-07-13T04:44:09;77763.03;;;-144.67;100.00
47522;BME280;32291;52.010;4.446;2023-07-13T04:45:16;77765.16;;;-144.67;100.00
47522;BME280;32291;52.010;4.446;2023-07-13T04:46:19;77769.44;;;-144.67;100.00
47522;BME280;32291;52.010;4.446;2023-07-13T04:47:26;77752.31;;;-144.67;100.00
47522;BME280;32291;52.010;4.446;2023-07-13T04:48:36;77748.03;;;-144.67;100.00
47522;BME280;32291;52.010;4.446;2023-07-13T04:49:45;77750.19;;;-144.67;100.00
47522;BME280;32291;52.010;4.446;2023-07-13T04:50:47;77735.19;;;-144.67;100.00
47522;BME280;32291;52.010;4.446;2023-07-13T04:51:54;77733.06;;;-144.67;100.00
47522;BME280;32291;52.010;4.446;2023-07-13T04:53:01;77715.94;;;-144.67;100.00
47522;BME280;32291;52.010;4.446;2023-07-13T04:54:09;77709.50;;;-144.67;100.00
47522;BME280;32291;52.010;4.446;2023-07-13T04:55:18;77713.78;;;-144.67;100.00
47522;BME280;32291;52.010;4.446;2023-07-13T04:56:25;77709.50;;;-144.67;100.00
47522;BME280;32291;52.010;4.446;2023-07-13T04:57:32;77698.81;;;-144.67;100.00
47522;BME280;32291;52.010;4.446;2023-07-13T04:58:40;77700.94;;;-144.67;100.00
47522;BME280;32291;52.010;4.446;2023-07-13T04:59:42;77696.66;;;-144.67;100.00
47522;BME280;32291;52.010;4.446;2023-07-13T05:00:45;77690.25;;;-144.67;100.00
47522;BME280;32291;52.010;4.446;2023-07-13T05:01:52;77688.09;;;-144.67;100.00
47522;BME280;32291;52.010;4.446;2023-07-13T05:03:03;77688.09;;;-144.67;100.00
47522;BME280;32291;52.010;4.446;2023-07-13T05:04:10;77694.53;;;-144.67;100.00
47522;BME280;32291;52.010;4.446;2023-07-13T05:05:17;77692.38;;;-144.67;100.00
47522;BME280;32291;52.010;4.446;2023-07-13T05:06:20;77694.53;;;-144.67;100.00
47522;BME280;32291;52.010;4.446;2023-07-13T05:07:23;77692.38;;;-144.67;100.00
47522;BME280;32291;52.010;4.446;2023-07-13T05:08:30;77692.38;;;-144.67;100.00
47522;BME280;32291;52.010;4.446;2023-07-13T05:09:32;77690.25;;;-144.67;100.00
47522;BME280;32291;52.010;4.446;2023-07-13T05:10:35;77690.25;;;-144.67;100.00
47522;BME280;32291;52.010;4.446;2023-07-13T05:11:38;77694.53;;;-144.67;100.00
47522;BME280;32291;52.010;4.446;2023-07-13T05:12:40;77692.38;;;-144.67;100.00
47522;BME280;32291;52.010;4.446;2023-07-13T05:13:42;77694.53;;;-144.67;100.00
47522;BME280;32291;52.010;4.446;2023-07-13T05:14:50;77698.81;;;-144.67;100.00
47522;BME280;32291;52.010;4.446;2023-07-13T05:16:02;77688.09;;;-144.67;100.00
47522;BME280;32291;52.010;4.446;2023-07-13T05:17:05;77692.38;;;-144.67;100.00
47522;BME280;32291;52.010;4.446;2023-07-13T05:18:09;77685.97;;;-144.67;100.00
47522;BME280;32291;52.010;4.446;2023-07-13T05:19:12;77696.66;;;-144.67;100.00
47522;BME280;32291;52.010;4.446;2023-07-13T05:20:20;77696.66;;;-144.67;100.00
47522;BME280;32291;52.010;4.446;2023-07-13T05:21:25;77692.38;;;-144.67;100.00
47522;BME280;32291;52.010;4.446;2023-07-13T05:22:35;77698.81;;;-144.67;100.00
47522;BME280;32291;52.010;4.446;2023-07-13T05:23:42;77692.38;;;-144.67;100.00
47522;BME280;32291;52.010;4.446;2023-07-13T05:24:45;77692.38;;;-144.67;100.00
47522;BME280;32291;52.010;4.446;2023-07-13T05:25:51;77683.81;;;-144.67;100.00
47522;BME280;32291;52.010;4.446;2023-07-13T05:26:54;77683.81;;;-144.67;100.00
47522;BME280;32291;52.010;4.446;2023-07-13T05:28:01;77670.97;;;-144.67;100.00
47522;BME280;32291;52.010;4.446;2023-07-13T05:29:04;77679.53;;;-144.67;100.00
47522;BME280;32291;52.010;4.446;2023-07-13T05:30:11;77675.25;;;-144.67;100.00
47522;BME280;32291;52.010;4.446;2023-07-13T05:31:22;77668.84;;;-144.67;100.00
47522;BME280;32291;52.010;4.446;2023-07-13T05:32:24;77660.28;;;-144.67;100.00
47522;BME280;32291;52.010;4.446;2023-07-13T05:33:26;77662.41;;;-144.67;100.00
47522;BME280;32291;52.010;4.446;2023-07-13T05:34:34;77641.00;;;-144.67;100.00
47522;BME280;32291;52.010;4.446;2023-07-13T05:37:41;77632.44;;;-144.67;100.00
47522;BME280;32291;52.010;4.446;2023-07-13T05:38:43;77636.72;;;-144.67;100.00
47522;BME280;32291;52.010;4.446;2023-07-13T05:39:45;77628.16;;;-144.67;100.00
47522;BME280;32291;52.010;4.446;2023-07-13T05:40:47;77628.16;;;-144.67;100.00